Darfield, United Kingdom
Current Conditions -  °F | °C
As of 1:50 AM on Wednesday 22 Oct 2014 (Local Time) from EGCN Reporting Station
Clear Clear  
Wind Chill: 40°   Ceiling: Unl
Heat Index: 46°   Visibility: 6mi
Dew Point: 39°   Wind: 14mph
Humidity: 76%   Direction: 250°WSW
Pressure: 30.12"   Gusts: NA
Location:  53.53°N, 1.38°W
Report Text: EGCN 220050Z 25012KT CAVOK 08/04 Q1020
Loading
Personal Weather Stations






























Interactive Weather Map
Tropical Storm Tracking
New forecast layout! Learn more

10-Day Weather Forecast

Advertisements
Track Severe Weather on mobile